Time;durP1;ratioP1;P1;durP2;ratioP2;P2;SDS_P1;SDS_P2;PMS_P1;PMS_P2;Temp;Humidity;BMP_temperature;BMP_pressure;BME280_temperature;BME280_humidity;BME280_pressure;Samples;Min_cycle;Max_cycle;Signal;HPM_P1;HPM_P2
2023/08/04 00:00:41;;;;;;;;;;;;;;;23.80;77.70;99270.09;5032709;28;822;-62
2023/08/04 00:03:08;;;;;;;;;;;;;;;23.82;77.62;99268.28;5032837;28;854;-62
2023/08/04 00:05:34;;;;;;;;;;;;;;;23.78;78.05;99261.34;5032625;28;855;-63
2023/08/04 00:08:00;;;;;;;;;;;;;;;23.74;78.68;99267.19;5032820;28;855;-63
2023/08/04 00:10:28;;;;;;;;;;;;;;;23.74;78.54;99270.03;5032624;28;1886;-63
2023/08/04 00:12:54;;;;;;;;;;;;;;;23.72;79.15;99275.41;5032733;28;893;-63
2023/08/04 00:15:21;;;;;;;;;;;;;;;23.69;79.19;99275.66;5032797;28;855;-63
2023/08/04 00:17:48;;;;;;;;;;;;;;;23.65;79.74;99275.88;5032921;28;878;-62
2023/08/04 00:20:15;;;;;;;;;;;;;;;23.65;80.13;99275.88;5032872;28;818;-63
2023/08/04 00:22:42;;;;;;;;;;;;;;;23.62;80.48;99268.44;5032624;28;894;-62
2023/08/04 00:25:09;;;;;;;;;;;;;;;23.64;80.55;99272.31;5032410;28;897;-62
2023/08/04 00:27:36;;;;;;;;;;;;;;;23.63;80.95;99269.97;5032498;28;901;-62
2023/08/04 00:30:03;;;;;;;;;;;;;;;23.63;80.77;99265.09;5032260;28;1898;-62
2023/08/04 00:32:30;;;;;;;;;;;;;;;23.61;80.95;99270.47;5032372;28;862;-62
2023/08/04 00:34:57;;;;;;;;;;;;;;;23.57;81.71;99272.75;5032099;28;846;-62
2023/08/04 00:37:24;;;;;;;;;;;;;;;23.58;81.61;99271.50;5032117;28;795;-62
2023/08/04 00:39:50;;;;;;;;;;;;;;;23.53;82.42;99272.22;5032264;28;1185;-62
2023/08/04 00:42:18;;;;;;;;;;;;;;;23.49;83.00;99270.94;5032222;28;882;-62
2023/08/04 00:44:43;;;;;;;;;;;;;;;23.44;83.00;99267.56;5032212;28;829;-62
2023/08/04 00:47:11;;;;;;;;;;;;;;;23.42;83.44;99264.47;5032322;28;803;-62
2023/08/04 00:49:38;;;;;;;;;;;;;;;23.39;84.10;99268.31;5031652;28;1963;-62
2023/08/04 00:52:05;;;;;;;;;;;;;;;23.36;84.21;99260.09;5032140;28;1227;-63
2023/08/04 00:54:33;;;;;;;;;;;;;;;23.32;84.66;99260.34;5032339;28;808;-62
2023/08/04 00:57:00;;;;;;;;;;;;;;;23.27;84.82;99258.25;5032089;28;1244;-62
2023/08/04 00:59:26;;;;;;;;;;;;;;;23.15;86.31;99265.09;5031894;28;1342;-62
2023/08/04 01:01:53;;;;;;;;;;;;;;;22.98;87.72;99264.94;5031992;28;1185;-63
2023/08/04 01:04:20;;;;;;;;;;;;;;;22.86;88.86;99260.53;5031697;28;1167;-62
2023/08/04 01:06:59;;;;;;;;;;;;;;;22.85;89.10;99256.91;5032042;28;1237;-62
2023/08/04 01:09:32;;;;;;;;;;;;;;;22.85;89.45;99254.09;5031753;28;1940;-62
2023/08/04 01:12:05;;;;;;;;;;;;;;;22.78;90.18;99257.38;5031905;28;858;-62
2023/08/04 01:14:33;;;;;;;;;;;;;;;22.70;90.84;99262.69;5032110;28;825;-62
2023/08/04 01:17:21;;;;;;;;;;;;;;;22.60;91.96;99258.53;5031998;28;815;-62
2023/08/04 01:19:48;;;;;;;;;;;;;;;22.55;92.58;99262.03;5031612;28;991;-63
2023/08/04 01:22:14;;;;;;;;;;;;;;;22.48;93.54;99263.25;5031717;28;893;-63
2023/08/04 01:24:41;;;;;;;;;;;;;;;22.42;94.14;99254.78;5031615;28;830;-62
2023/08/04 01:27:12;;;;;;;;;;;;;;;22.45;94.76;99253.00;5031574;28;871;-63
2023/08/04 01:29:40;;;;;;;;;;;;;;;22.49;95.03;99255.59;5031484;28;1949;-62
2023/08/04 01:32:07;;;;;;;;;;;;;;;22.50;94.83;99251.50;5031468;28;846;-63
2023/08/04 01:34:34;;;;;;;;;;;;;;;22.52;94.50;99246.91;5031545;28;862;-62
2023/08/04 01:36:59;;;;;;;;;;;;;;;22.49;94.98;99249.94;5031528;28;839;-63
2023/08/04 01:39:26;;;;;;;;;;;;;;;22.43;95.63;99255.56;5031658;28;877;-63
2023/08/04 01:41:53;;;;;;;;;;;;;;;22.37;96.16;99249.09;5031808;28;827;-63
2023/08/04 01:44:19;;;;;;;;;;;;;;;22.33;96.59;99248.53;5031431;28;893;-62
2023/08/04 01:46:46;;;;;;;;;;;;;;;22.27;97.18;99259.72;5031420;28;924;-63
2023/08/04 01:49:13;;;;;;;;;;;;;;;22.20;97.97;99260.16;5034031;28;1898;-63
2023/08/04 01:51:41;;;;;;;;;;;;;;;22.08;99.55;99259.25;5035193;28;854;-63
2023/08/04 01:54:07;;;;;;;;;;;;;;;21.93;100.00;99267.78;5035090;28;822;-62
2023/08/04 01:56:34;;;;;;;;;;;;;;;21.81;100.00;99268.94;5035126;28;870;-63
2023/08/04 01:59:01;;;;;;;;;;;;;;;21.73;100.00;99270.63;5035074;28;942;-63
2023/08/04 02:01:27;;;;;;;;;;;;;;;21.65;100.00;99264.63;5034863;28;847;-63
2023/08/04 02:03:54;;;;;;;;;;;;;;;21.58;100.00;99268.66;5035011;28;947;-63
2023/08/04 02:06:21;;;;;;;;;;;;;;;21.52;100.00;99261.41;5034896;28;827;-63
2023/08/04 02:08:47;;;;;;;;;;;;;;;21.48;100.00;99270.03;5034998;28;1952;-63
2023/08/04 02:11:15;;;;;;;;;;;;;;;21.44;100.00;99274.34;5035204;28;846;-63
2023/08/04 02:13:41;;;;;;;;;;;;;;;21.36;100.00;99269.09;5034704;28;926;-63
2023/08/04 02:16:08;;;;;;;;;;;;;;;21.28;100.00;99270.78;5034792;28;835;-63
2023/08/04 02:18:35;;;;;;;;;;;;;;;21.21;100.00;99274.00;5034644;28;874;-63
2023/08/04 02:21:02;;;;;;;;;;;;;;;21.19;100.00;99276.53;5034842;28;882;-63
2023/08/04 02:23:30;;;;;;;;;;;;;;;21.14;100.00;99280.78;5034590;28;851;-63
2023/08/04 02:25:57;;;;;;;;;;;;;;;21.08;100.00;99284.78;5034490;28;933;-63
2023/08/04 02:28:23;;;;;;;;;;;;;;;21.00;100.00;99284.41;5034527;28;906;-63
2023/08/04 02:30:50;;;;;;;;;;;;;;;20.95;100.00;99283.06;5034236;28;1894;-63
2023/08/04 02:33:17;;;;;;;;;;;;;;;20.91;100.00;99279.69;5034809;28;873;-62
2023/08/04 02:35:46;;;;;;;;;;;;;;;20.88;100.00;99277.84;5034345;28;874;-62
2023/08/04 02:38:13;;;;;;;;;;;;;;;20.87;100.00;99292.34;5034368;28;901;-63
2023/08/04 02:40:40;;;;;;;;;;;;;;;20.81;100.00;99292.28;5034319;28;861;-62
2023/08/04 02:43:07;;;;;;;;;;;;;;;20.76;100.00;99293.75;5034393;28;897;-63
2023/08/04 02:45:34;;;;;;;;;;;;;;;20.73;100.00;99296.75;5034186;28;900;-63
2023/08/04 02:48:00;;;;;;;;;;;;;;;20.72;100.00;99295.97;5034321;28;1022;-63
2023/08/04 02:50:27;;;;;;;;;;;;;;;20.72;100.00;99303.63;5033732;28;1910;-63
2023/08/04 02:52:54;;;;;;;;;;;;;;;20.74;100.00;99299.06;5016314;28;1333;-62
2023/08/04 02:55:21;;;;;;;;;;;;;;;20.78;100.00;99296.03;5033974;28;830;-63
2023/08/04 02:57:48;;;;;;;;;;;;;;;20.78;100.00;99294.03;5033900;28;817;-63
2023/08/04 03:00:16;;;;;;;;;;;;;;;20.78;100.00;99296.84;5033476;28;854;-62
2023/08/04 03:02:43;;;;;;;;;;;;;;;20.79;100.00;99301.19;5034000;28;838;-62
2023/08/04 03:05:10;;;;;;;;;;;;;;;20.79;100.00;99304.00;5016015;28;1341;-63
2023/08/04 03:07:36;;;;;;;;;;;;;;;20.82;100.00;99296.63;5033800;28;823;-62
2023/08/04 03:10:03;;;;;;;;;;;;;;;20.84;100.00;99299.72;5033739;28;1894;-63
2023/08/04 03:12:29;;;;;;;;;;;;;;;20.86;100.00;99302.81;5033859;28;914;-62
2023/08/04 03:14:55;;;;;;;;;;;;;;;20.89;100.00;99306.69;5033885;28;842;-62
2023/08/04 03:17:22;;;;;;;;;;;;;;;20.93;100.00;99304.47;5034057;28;897;-63
2023/08/04 03:19:48;;;;;;;;;;;;;;;20.96;100.00;99307.06;5033670;28;909;-62
2023/08/04 03:22:15;;;;;;;;;;;;;;;21.00;100.00;99306.88;5033713;28;822;-62
2023/08/04 03:24:42;;;;;;;;;;;;;;;21.01;100.00;99305.63;5033523;28;819;-62
2023/08/04 03:27:08;;;;;;;;;;;;;;;21.01;100.00;99311.22;5033545;28;1236;-62
2023/08/04 03:29:35;;;;;;;;;;;;;;;21.01;100.00;99317.63;5034316;28;1949;-63
2023/08/04 03:32:02;;;;;;;;;;;;;;;21.03;100.00;99310.75;5033294;28;1211;-62
2023/08/04 03:34:29;;;;;;;;;;;;;;;21.03;100.00;99305.91;5033127;28;1237;-62
2023/08/04 03:36:55;;;;;;;;;;;;;;;21.05;100.00;99311.03;5033324;28;1217;-62
2023/08/04 03:39:22;;;;;;;;;;;;;;;21.07;100.00;99312.09;5033153;28;848;-62
2023/08/04 03:41:49;;;;;;;;;;;;;;;21.09;100.00;99317.25;5033178;28;846;-62
2023/08/04 03:44:16;;;;;;;;;;;;;;;21.13;100.00;99315.00;5033072;28;878;-62
2023/08/04 03:46:43;;;;;;;;;;;;;;;21.19;100.00;99322.25;5033050;28;870;-63
2023/08/04 03:49:09;;;;;;;;;;;;;;;21.26;100.00;99321.06;5032771;28;1910;-62
2023/08/04 03:51:36;;;;;;;;;;;;;;;21.35;100.00;99323.75;5032897;28;878;-62
2023/08/04 03:54:04;;;;;;;;;;;;;;;21.44;100.00;99317.25;5032934;28;889;-63
2023/08/04 03:56:31;;;;;;;;;;;;;;;21.55;100.00;99325.09;5032792;28;873;-63
2023/08/04 03:58:57;;;;;;;;;;;;;;;21.65;100.00;99328.56;5014976;28;782;-62
2023/08/04 04:01:24;;;;;;;;;;;;;;;21.74;100.00;99314.34;5032632;28;893;-62
2023/08/04 04:03:51;;;;;;;;;;;;;;;21.85;100.00;99330.59;5032824;28;890;-63
2023/08/04 04:06:18;;;;;;;;;;;;;;;21.97;100.00;99324.63;5032897;28;842;-63
2023/08/04 04:08:45;;;;;;;;;;;;;;;22.11;100.00;99319.41;5032615;28;889;-63
2023/08/04 04:11:12;;;;;;;;;;;;;;;22.25;100.00;99329.81;5031801;28;1953;-63
2023/08/04 04:13:40;;;;;;;;;;;;;;;22.39;100.00;99326.16;5032537;28;835;-63
2023/08/04 04:16:06;;;;;;;;;;;;;;;22.57;100.00;99332.72;5014701;28;1385;-63
2023/08/04 04:18:33;;;;;;;;;;;;;;;22.74;100.00;99330.06;5032436;28;897;-63
2023/08/04 04:21:00;;;;;;;;;;;;;;;22.89;100.00;99324.31;5032387;28;819;-63
2023/08/04 04:23:27;;;;;;;;;;;;;;;23.03;100.00;99327.03;5032403;28;819;-63
2023/08/04 04:25:54;;;;;;;;;;;;;;;23.19;100.00;99327.66;5032341;28;902;-63
2023/08/04 04:28:20;;;;;;;;;;;;;;;23.35;100.00;99327.00;5032238;28;877;-63
2023/08/04 04:30:47;;;;;;;;;;;;;;;23.54;100.00;99327.38;5032088;28;1971;-63
2023/08/04 04:33:13;;;;;;;;;;;;;;;23.74;100.00;99334.16;5032281;28;858;-63
2023/08/04 04:35:46;;;;;;;;;;;;;;;23.92;100.00;99328.13;5032101;28;842;-63
2023/08/04 04:38:14;;;;;;;;;;;;;;;24.07;100.00;99325.09;5032310;28;838;-63
2023/08/04 04:40:40;;;;;;;;;;;;;;;24.21;100.00;99326.16;5032269;28;898;-63
2023/08/04 04:43:07;;;;;;;;;;;;;;;24.31;100.00;99330.28;5032328;28;854;-63
2023/08/04 04:45:34;;;;;;;;;;;;;;;24.44;100.00;99327.75;5032071;28;913;-64
2023/08/04 04:48:01;;;;;;;;;;;;;;;24.63;100.00;99330.13;5032228;28;1013;-63
2023/08/04 04:50:28;;;;;;;;;;;;;;;24.84;100.00;99310.88;5031743;28;1973;-63
2023/08/04 04:52:55;;;;;;;;;;;;;;;25.49;100.00;99331.69;5032122;28;815;-63
2023/08/04 04:55:22;;;;;;;;;;;;;;;25.81;98.84;99338.53;5032098;28;850;-63
2023/08/04 04:57:49;;;;;;;;;;;;;;;26.06;95.23;99335.91;5032086;28;862;-62
2023/08/04 05:00:17;;;;;;;;;;;;;;;26.30;91.35;99334.50;5032162;28;815;-63
2023/08/04 05:02:44;;;;;;;;;;;;;;;26.42;89.22;99335.97;5031850;28;873;-63
2023/08/04 05:05:11;;;;;;;;;;;;;;;26.50;88.24;99345.47;5031929;28;890;-63
2023/08/04 05:07:37;;;;;;;;;;;;;;;26.38;87.80;99346.81;5031804;28;867;-65
2023/08/04 05:10:03;;;;;;;;;;;;;;;26.28;87.41;99349.16;5031930;28;1957;-64
2023/08/04 05:12:30;;;;;;;;;;;;;;;26.28;86.95;99341.44;5031973;28;819;-65
2023/08/04 05:14:56;;;;;;;;;;;;;;;26.47;85.59;99340.81;5032282;28;838;-63
2023/08/04 05:17:23;;;;;;;;;;;;;;;26.66;83.41;99341.75;5031731;28;1217;-63
2023/08/04 05:19:49;;;;;;;;;;;;;;;26.75;83.00;99346.34;5031753;28;1294;-64
2023/08/04 05:22:16;;;;;;;;;;;;;;;26.85;82.13;99352.47;5033290;28;842;-63
2023/08/04 05:24:42;;;;;;;;;;;;;;;26.95;80.62;99348.00;5035755;28;886;-64
2023/08/04 05:27:09;;;;;;;;;;;;;;;27.07;79.16;99343.00;5035608;28;882;-64
2023/08/04 05:29:36;;;;;;;;;;;;;;;27.26;77.66;99349.56;5035437;28;1953;-64
2023/08/04 05:32:01;;;;;;;;;;;;;;;27.54;75.43;99351.34;5035561;28;877;-64
2023/08/04 05:34:28;;;;;;;;;;;;;;;27.75;73.76;99350.88;5035476;28;1012;-64
2023/08/04 05:36:55;;;;;;;;;;;;;;;27.90;72.38;99348.41;5035528;28;861;-65
2023/08/04 05:39:22;;;;;;;;;;;;;;;28.12;70.66;99350.19;5035521;28;1013;-64
2023/08/04 05:41:49;;;;;;;;;;;;;;;28.29;70.03;99353.59;5035764;28;870;-64
2023/08/04 05:44:15;;;;;;;;;;;;;;;28.50;69.80;99344.56;5035411;28;950;-64
2023/08/04 05:46:42;;;;;;;;;;;;;;;28.63;68.98;99347.44;5035286;28;803;-64
2023/08/04 05:49:09;;;;;;;;;;;;;;;28.64;69.32;99354.69;5034985;28;1910;-64
2023/08/04 05:51:36;;;;;;;;;;;;;;;28.78;68.93;99361.19;5035265;28;839;-64
2023/08/04 05:54:02;;;;;;;;;;;;;;;29.21;67.07;99351.75;5035142;28;858;-64
2023/08/04 05:56:29;;;;;;;;;;;;;;;30.03;62.86;99359.81;5035153;28;847;-64
2023/08/04 05:58:56;;;;;;;;;;;;;;;31.11;57.77;99359.75;5017485;28;914;-66
2023/08/04 06:01:23;;;;;;;;;;;;;;;31.89;54.81;99361.09;5035034;28;890;-65
2023/08/04 06:03:50;;;;;;;;;;;;;;;32.61;53.17;99354.59;5035120;28;854;-65
2023/08/04 06:06:17;;;;;;;;;;;;;;;33.43;49.99;99352.97;5034958;28;819;-65
2023/08/04 06:08:43;;;;;;;;;;;;;;;34.31;47.26;99361.78;5034970;28;811;-65
2023/08/04 06:11:10;;;;;;;;;;;;;;;35.07;44.37;99350.44;5034680;28;2309;-66
2023/08/04 06:13:37;;;;;;;;;;;;;;;35.25;43.04;99359.88;5034861;28;866;-66
2023/08/04 06:16:04;;;;;;;;;;;;;;;35.20;43.23;99361.66;5034640;28;835;-66
2023/08/04 06:18:31;;;;;;;;;;;;;;;35.46;42.57;99360.25;5034702;28;870;-64
2023/08/04 06:20:58;;;;;;;;;;;;;;;36.01;41.54;99363.38;5034683;28;854;-65
2023/08/04 06:23:24;;;;;;;;;;;;;;;36.22;40.42;99365.84;5034652;28;869;-65
2023/08/04 06:25:50;;;;;;;;;;;;;;;36.26;39.72;99371.94;5016855;28;889;-65
2023/08/04 06:28:18;;;;;;;;;;;;;;;36.30;39.58;99375.16;5034445;28;921;-64
2023/08/04 06:30:45;;;;;;;;;;;;;;;36.51;39.21;99366.81;5016801;28;1957;-63
2023/08/04 06:33:12;;;;;;;;;;;;;;;36.82;38.30;99363.50;5033543;28;941;-65
2023/08/04 06:35:41;;;;;;;;;;;;;;;36.96;37.74;99366.78;5034412;28;826;-63
2023/08/04 06:38:09;;;;;;;;;;;;;;;37.07;37.67;99368.34;5034306;28;842;-64
2023/08/04 06:40:37;;;;;;;;;;;;;;;37.55;37.18;99368.47;5034288;28;862;-64
2023/08/04 06:43:04;;;;;;;;;;;;;;;37.83;35.65;99360.50;5034436;28;838;-65
2023/08/04 06:45:31;;;;;;;;;;;;;;;37.96;35.37;99365.06;5034261;28;882;-65
2023/08/04 06:47:58;;;;;;;;;;;;;;;38.18;34.75;99366.75;5034235;28;924;-65
2023/08/04 06:50:24;;;;;;;;;;;;;;;38.17;34.32;99364.47;5033883;28;1975;-65
2023/08/04 06:52:51;;;;;;;;;;;;;;;38.42;33.10;99363.41;5034011;28;854;-65
2023/08/04 06:55:18;;;;;;;;;;;;;;;38.86;32.20;99362.22;5034196;28;885;-66
2023/08/04 06:57:43;;;;;;;;;;;;;;;38.77;32.19;99360.88;5033884;28;862;-64
2023/08/04 07:00:10;;;;;;;;;;;;;;;39.20;31.62;99355.28;5033940;28;889;-65
2023/08/04 07:02:37;;;;;;;;;;;;;;;39.61;31.03;99363.88;5033877;28;815;-65
2023/08/04 07:05:03;;;;;;;;;;;;;;;39.60;31.25;99365.25;5033797;28;788;-65
2023/08/04 07:07:30;;;;;;;;;;;;;;;39.56;31.04;99368.63;5033927;28;847;-65
2023/08/04 07:09:57;;;;;;;;;;;;;;;39.69;30.82;99364.44;5033633;28;1890;-64
2023/08/04 07:12:24;;;;;;;;;;;;;;;39.60;30.98;99366.00;5033740;28;843;-62
2023/08/04 07:14:50;;;;;;;;;;;;;;;39.51;31.34;99363.94;5033612;28;838;-62
2023/08/04 07:17:16;;;;;;;;;;;;;;;39.50;31.71;99367.47;5033623;28;882;-63
2023/08/04 07:19:43;;;;;;;;;;;;;;;39.82;31.56;99360.22;5033624;28;878;-63
2023/08/04 07:22:10;;;;;;;;;;;;;;;40.24;31.08;99367.34;5033776;28;874;-66
2023/08/04 07:24:36;;;;;;;;;;;;;;;40.35;30.96;99366.66;5033421;28;833;-65
2023/08/04 07:27:03;;;;;;;;;;;;;;;40.62;30.65;99363.31;5033377;28;925;-65
2023/08/04 07:29:33;;;;;;;;;;;;;;;40.85;30.58;99358.22;5033228;28;1949;-65
2023/08/04 07:32:00;;;;;;;;;;;;;;;40.60;30.74;99368.97;5033356;28;855;-63
2023/08/04 07:34:26;;;;;;;;;;;;;;;40.59;30.74;99361.69;5033475;28;870;-66
2023/08/04 07:36:53;;;;;;;;;;;;;;;40.65;30.81;99361.31;5033538;28;898;-66
2023/08/04 07:42:22;;;;;;;;;;;;;;;40.66;30.44;99359.19;5033057;28;813;-66
2023/08/04 07:44:49;;;;;;;;;;;;;;;40.52;30.80;99359.00;5033057;28;909;-66
2023/08/04 07:47:16;;;;;;;;;;;;;;;40.41;31.01;99358.38;5032938;28;1014;-65
2023/08/04 07:49:43;;;;;;;;;;;;;;;40.42;30.98;99362.03;5032527;28;1973;-65
2023/08/04 07:52:10;;;;;;;;;;;;;;;40.44;30.57;99362.16;5032961;28;870;-66
2023/08/04 07:54:38;;;;;;;;;;;;;;;40.35;30.50;99363.00;5032824;28;925;-66
2023/08/04 07:57:06;;;;;;;;;;;;;;;40.66;30.49;99359.94;5032836;28;811;-66
2023/08/04 07:59:33;;;;;;;;;;;;;;;41.24;29.84;99354.84;5032678;28;848;-66
2023/08/04 08:01:59;;;;;;;;;;;;;;;41.43;29.51;99355.31;5032827;28;815;-66
2023/08/04 08:04:26;;;;;;;;;;;;;;;41.26;28.63;99367.31;5032837;28;803;-67
2023/08/04 08:06:53;;;;;;;;;;;;;;;40.96;27.67;99366.91;5032637;28;909;-67
2023/08/04 08:09:20;;;;;;;;;;;;;;;40.74;28.44;99360.47;5032574;28;1893;-67
2023/08/04 08:11:46;;;;;;;;;;;;;;;40.91;28.53;99355.72;5032699;28;842;-67
2023/08/04 08:14:13;;;;;;;;;;;;;;;40.87;28.95;99361.25;5032517;28;940;-66
2023/08/04 08:16:40;;;;;;;;;;;;;;;41.12;28.02;99357.72;5032489;28;988;-68
2023/08/04 08:19:07;;;;;;;;;;;;;;;40.54;27.81;99353.34;5032553;28;878;-65
2023/08/04 08:21:35;;;;;;;;;;;;;;;40.53;28.31;99358.38;5032194;28;867;-66
2023/08/04 08:24:02;;;;;;;;;;;;;;;40.68;27.63;99365.84;5032427;28;882;-67
2023/08/04 08:26:28;;;;;;;;;;;;;;;40.83;25.99;99355.94;5032238;28;834;-67
2023/08/04 08:28:55;;;;;;;;;;;;;;;41.23;26.03;99357.00;5032320;28;842;-66
2023/08/04 08:31:22;;;;;;;;;;;;;;;41.29;25.53;99354.47;5032176;28;1890;-67
2023/08/04 08:33:49;;;;;;;;;;;;;;;40.88;26.39;99360.59;5032177;28;921;-66
2023/08/04 08:36:19;;;;;;;;;;;;;;;40.89;27.25;99358.47;5032227;28;835;-68
2023/08/04 08:38:46;;;;;;;;;;;;;;;40.72;26.90;99350.91;5032093;28;882;-67
2023/08/04 08:41:13;;;;;;;;;;;;;;;40.45;27.10;99354.22;5032169;28;862;-66
2023/08/04 08:43:40;;;;;;;;;;;;;;;40.39;27.32;99354.56;5032049;28;878;-68
2023/08/04 08:46:08;;;;;;;;;;;;;;;40.27;27.10;99353.78;5031988;28;858;-67
2023/08/04 08:48:37;;;;;;;;;;;;;;;40.19;26.71;99345.31;5031823;28;1151;-66
2023/08/04 08:51:06;;;;;;;;;;;;;;;40.37;26.69;99349.44;5031960;28;1982;-67
2023/08/04 08:53:34;;;;;;;;;;;;;;;40.41;26.82;99343.91;5032045;28;885;-67
2023/08/04 08:56:02;;;;;;;;;;;;;;;40.27;26.97;99351.63;5031523;28;807;-67
2023/08/04 08:58:30;;;;;;;;;;;;;;;40.32;26.82;99350.53;5031945;28;856;-67
2023/08/04 09:00:56;;;;;;;;;;;;;;;40.24;26.86;99352.88;5031869;28;870;-65
2023/08/04 09:03:23;;;;;;;;;;;;;;;40.23;26.41;99345.56;5031916;28;853;-66
2023/08/04 09:05:50;;;;;;;;;;;;;;;40.20;26.84;99343.91;5031767;28;858;-67
2023/08/04 09:08:17;;;;;;;;;;;;;;;40.24;26.67;99344.19;5014106;28;1212;-70
2023/08/04 09:10:47;;;;;;;;;;;;;;;39.94;27.13;99337.16;5031688;28;1890;-66
2023/08/04 09:13:14;;;;;;;;;;;;;;;39.87;27.11;99333.09;5031996;28;843;-67
2023/08/04 09:15:51;;;;;;;;;;;;;;;39.58;27.51;99351.41;5031746;28;846;-67
2023/08/04 09:49:20;;;;;;;;;;;;;;;39.07;28.17;99329.78;5240136;22;1977;-57
2023/08/04 09:51:50;;;;;;;;;;;;;;;38.69;28.40;99334.34;5031442;28;862;-57
2023/08/04 09:54:17;;;;;;;;;;;;;;;38.70;28.17;99333.72;5031634;28;1179;-57
2023/08/04 09:56:45;;;;;;;;;;;;;;;38.66;28.11;99332.66;5031439;28;1272;-57
2023/08/04 09:59:12;;;;;;;;;;;;;;;38.68;27.94;99327.78;5031625;28;1287;-56
2023/08/04 10:01:40;;;;;;;;;;;;;;;38.78;28.31;99334.28;5031533;28;1285;-56
2023/08/04 10:04:08;;;;;;;;;;;;;;;38.63;28.80;99319.47;5031534;28;818;-56
2023/08/04 10:06:35;;;;;;;;;;;;;;;38.69;28.66;99329.31;5031330;28;814;-56
2023/08/04 10:09:03;;;;;;;;;;;;;;;38.56;28.68;99321.16;5032561;28;818;-56
2023/08/04 10:11:30;;;;;;;;;;;;;;;38.74;28.32;99316.66;5034814;28;857;-56
2023/08/04 10:13:57;;;;;;;;;;;;;;;38.78;27.99;99319.84;5034895;28;858;-57
2023/08/04 10:16:30;;;;;;;;;;;;;;;38.98;27.26;99322.69;5033592;28;1421;-56
2023/08/04 10:19:03;;;;;;;;;;;;;;;38.93;28.21;99317.97;5034728;28;869;-56
2023/08/04 10:21:40;;;;;;;;;;;;;;;38.77;28.88;99312.56;5034713;28;839;-56
2023/08/04 10:24:08;;;;;;;;;;;;;;;38.79;28.63;99324.28;5034702;28;861;-56
2023/08/04 10:26:43;;;;;;;;;;;;;;;38.78;28.26;99322.75;5034614;28;865;-57
2023/08/04 10:29:10;;;;;;;;;;;;;;;38.64;28.98;99315.19;5034533;28;1890;-55
2023/08/04 10:31:45;;;;;;;;;;;;;;;38.60;29.17;99315.66;5034630;28;822;-55
2023/08/04 10:34:16;;;;;;;;;;;;;;;38.60;29.16;99309.88;5034740;28;791;-56
2023/08/04 10:37:09;;;;;;;;;;;;;;;38.59;28.28;99317.78;5034471;28;857;-57
2023/08/04 10:39:39;;;;;;;;;;;;;;;38.70;28.48;99321.41;5034740;28;924;-57
2023/08/04 10:42:26;;;;;;;;;;;;;;;38.66;28.91;99316.09;5054219;28;893;-56
2023/08/04 10:45:10;;;;;;;;;;;;;;;38.97;28.20;99316.16;5054220;28;861;-57
2023/08/04 10:48:09;;;;;;;;;;;;;;;38.97;28.06;99313.25;5036247;28;1307;-56
2023/08/04 10:50:36;;;;;;;;;;;;;;;38.83;27.54;99317.25;5010221;28;1963;-56
2023/08/04 10:53:03;;;;;;;;;;;;;;;38.89;27.97;99317.69;5054017;28;873;-56
2023/08/04 10:55:32;;;;;;;;;;;;;;;39.22;27.27;99314.97;5053986;28;942;-56
2023/08/04 10:57:59;;;;;;;;;;;;;;;39.45;26.91;99313.63;5054050;28;849;-56
2023/08/04 11:00:26;;;;;;;;;;;;;;;39.46;26.92;99313.00;5054005;28;1240;-56
2023/08/04 11:02:53;;;;;;;;;;;;;;;39.52;27.04;99309.75;5053883;28;1236;-56
2023/08/04 11:05:21;;;;;;;;;;;;;;;39.57;26.70;99309.41;5053798;28;1305;-57
2023/08/04 11:07:48;;;;;;;;;;;;;;;39.54;26.66;99312.78;5053994;28;913;-57
2023/08/04 11:10:16;;;;;;;;;;;;;;;39.69;26.74;99305.81;5053788;28;1889;-57
2023/08/04 11:12:42;;;;;;;;;;;;;;;39.59;26.62;99312.44;5053857;28;818;-57
2023/08/04 11:15:12;;;;;;;;;;;;;;;39.55;26.97;99315.06;5054061;28;866;-57
2023/08/04 11:17:39;;;;;;;;;;;;;;;39.71;26.56;99303.84;5053587;28;834;-57
2023/08/04 11:20:10;;;;;;;;;;;;;;;39.96;26.04;99309.09;5053060;28;894;-57
2023/08/04 11:22:37;;;;;;;;;;;;;;;40.00;26.02;99302.84;5053464;28;979;-56
2023/08/04 11:25:06;;;;;;;;;;;;;;;39.97;25.74;99299.06;5053365;28;858;-57
2023/08/04 11:27:32;;;;;;;;;;;;;;;39.93;25.82;99303.84;5053413;28;799;-56
2023/08/04 11:29:59;;;;;;;;;;;;;;;40.30;25.75;99295.41;5053564;28;1960;-56
2023/08/04 11:32:25;;;;;;;;;;;;;;;40.34;25.69;99310.13;5053310;28;862;-57
2023/08/04 11:34:55;;;;;;;;;;;;;;;40.34;25.43;99301.44;5053233;28;884;-57
2023/08/04 11:37:22;;;;;;;;;;;;;;;39.86;25.59;99294.00;5053100;28;914;-57
2023/08/04 11:39:50;;;;;;;;;;;;;;;39.70;25.81;99310.25;5053401;28;810;-58
2023/08/04 11:42:16;;;;;;;;;;;;;;;40.14;25.55;99300.13;5053056;28;833;-56
2023/08/04 11:44:44;;;;;;;;;;;;;;;40.39;25.40;99300.34;5053168;28;842;-57
2023/08/04 11:47:11;;;;;;;;;;;;;;;40.25;25.46;99284.19;5052968;28;841;-57
2023/08/04 11:49:39;;;;;;;;;;;;;;;40.27;25.45;99295.88;5031626;28;1906;-57
2023/08/04 11:52:14;;;;;;;;;;;;;;;40.44;25.37;99294.78;5033129;28;861;-56
2023/08/04 11:54:53;;;;;;;;;;;;;;;40.49;25.29;99302.38;5032959;28;1319;-56
2023/08/04 11:57:20;;;;;;;;;;;;;;;40.19;25.73;99291.06;5032890;28;811;-57
2023/08/04 11:59:50;;;;;;;;;;;;;;;40.03;25.76;99287.13;5032921;28;831;-56
2023/08/04 12:02:17;;;;;;;;;;;;;;;39.97;25.55;99292.53;5032811;28;869;-57
2023/08/04 12:04:44;;;;;;;;;;;;;;;40.02;25.32;99279.84;5032642;28;913;-57
2023/08/04 12:07:11;;;;;;;;;;;;;;;40.07;25.43;99284.50;5032709;28;837;-57
2023/08/04 12:09:38;;;;;;;;;;;;;;;40.42;25.34;99299.09;5032756;28;1886;-57
2023/08/04 12:12:05;;;;;;;;;;;;;;;40.61;25.06;99277.09;5032610;28;798;-57
2023/08/04 12:14:31;;;;;;;;;;;;;;;41.03;24.72;99284.00;5032838;28;841;-57
2023/08/04 12:17:00;;;;;;;;;;;;;;;40.90;24.70;99287.56;5032348;28;871;-56
2023/08/04 12:19:30;;;;;;;;;;;;;;;40.57;25.25;99286.25;5032511;28;921;-57
2023/08/04 12:21:59;;;;;;;;;;;;;;;40.06;25.56;99288.78;5032452;28;992;-56
2023/08/04 12:24:28;;;;;;;;;;;;;;;40.32;25.12;99278.16;5032539;28;850;-57
2023/08/04 12:26:55;;;;;;;;;;;;;;;40.69;25.23;99282.59;5032732;28;841;-57
2023/08/04 12:29:22;;;;;;;;;;;;;;;41.16;24.61;99279.72;5014705;28;1947;-57
2023/08/04 12:31:50;;;;;;;;;;;;;;;41.12;24.67;99276.56;5031664;28;787;-56
2023/08/04 12:34:16;;;;;;;;;;;;;;;41.45;23.97;99276.41;5032125;28;917;-56
2023/08/04 12:36:43;;;;;;;;;;;;;;;41.85;24.10;99274.38;5032393;28;789;-56
2023/08/04 12:39:10;;;;;;;;;;;;;;;41.78;23.48;99276.19;5032234;28;821;-57
2023/08/04 12:41:37;;;;;;;;;;;;;;;41.99;23.85;99272.34;5032302;28;799;-58
2023/08/04 12:44:04;;;;;;;;;;;;;;;41.97;23.85;99274.31;5032202;28;877;-57
2023/08/04 12:46:31;;;;;;;;;;;;;;;41.92;23.73;99266.78;5032200;28;795;-57
2023/08/04 12:48:58;;;;;;;;;;;;;;;42.09;23.32;99274.28;5039960;28;1203;-57
2023/08/04 12:51:27;;;;;;;;;;;;;;;41.87;23.47;99265.03;5051704;28;1902;-58
2023/08/04 12:53:54;;;;;;;;;;;;;;;42.20;23.40;99256.78;5051953;28;842;-57
2023/08/04 12:56:21;;;;;;;;;;;;;;;42.44;22.88;99250.84;5051881;28;959;-56
2023/08/04 12:58:47;;;;;;;;;;;;;;;41.93;22.90;99268.28;5051916;28;818;-59
2023/08/04 13:01:13;;;;;;;;;;;;;;;41.58;23.44;99263.41;5051807;28;885;-56
2023/08/04 13:03:40;;;;;;;;;;;;;;;41.76;23.10;99263.69;5052133;28;810;-57
2023/08/04 13:06:07;;;;;;;;;;;;;;;41.80;23.28;99266.84;5051823;28;826;-57
2023/08/04 13:08:33;;;;;;;;;;;;;;;42.20;23.26;99270.56;5052273;28;802;-59
2023/08/04 13:11:00;;;;;;;;;;;;;;;41.93;22.96;99263.25;5051772;28;1902;-58
2023/08/04 13:13:27;;;;;;;;;;;;;;;41.38;22.91;99269.50;5052090;28;877;-57
2023/08/04 13:15:54;;;;;;;;;;;;;;;41.33;23.33;99267.75;5051757;28;786;-58
2023/08/04 13:18:23;;;;;;;;;;;;;;;41.12;23.46;99271.53;5052063;28;1162;-57
2023/08/04 13:20:50;;;;;;;;;;;;;;;41.30;22.89;99263.19;5051645;28;823;-58
2023/08/04 13:23:17;;;;;;;;;;;;;;;40.91;22.86;99263.75;5051703;28;948;-57
2023/08/04 13:25:43;;;;;;;;;;;;;;;40.56;23.34;99266.63;5051588;28;847;-57
2023/08/04 13:28:10;;;;;;;;;;;;;;;40.73;22.86;99263.38;5031711;28;895;-59
2023/08/04 13:30:37;;;;;;;;;;;;;;;41.01;22.91;99264.38;5031775;28;1951;-57
2023/08/04 13:33:04;;;;;;;;;;;;;;;41.15;22.75;99267.41;5032081;28;868;-58
2023/08/04 13:35:31;;;;;;;;;;;;;;;41.09;22.30;99260.44;5031731;28;952;-57
2023/08/04 13:37:57;;;;;;;;;;;;;;;40.69;22.43;99256.53;5031760;28;861;-58